Time;durP1;ratioP1;P1;durP2;ratioP2;P2;SDS_P1;SDS_P2;PMS_P1;PMS_P2;Temp;Humidity;BMP_temperature;BMP_pressure;BME280_temperature;BME280_humidity;BME280_pressure;Samples;Min_cycle;Max_cycle;Signal;HPM_P1;HPM_P2
2023/03/21 00:04:25;;;;;;;12.37;6.97;;;12.60;99.90;;;;;;10395763;28;20309;-82
2023/03/21 00:09:30;;;;;;;12.93;7.67;;;12.60;99.90;;;;;;10377263;28;20237;-82
2023/03/21 00:14:33;;;;;;;10.30;7.13;;;12.50;99.90;;;;;;10371401;28;20694;-82
2023/03/21 00:19:37;;;;;;;8.73;6.47;;;12.30;99.90;;;;;;10393711;28;20900;-82
2023/03/21 00:24:40;;;;;;;7.50;5.37;;;12.10;99.90;;;;;;10356475;28;20232;-82
2023/03/21 00:29:42;;;;;;;17.73;10.40;;;12.20;99.90;;;;;;10380655;28;20254;-82
2023/03/21 00:34:45;;;;;;;10.10;5.73;;;12.00;99.90;;;;;;10393599;28;20312;-82
2023/03/21 00:40:09;;;;;;;10.63;7.97;;;12.10;99.90;;;;;;10411513;28;20223;-82
2023/03/21 00:45:26;;;;;;;12.07;8.17;;;12.60;99.90;;;;;;10389965;28;20326;-82
2023/03/21 00:50:29;;;;;;;11.57;8.03;;;12.30;99.90;;;;;;10361536;28;20201;-82
2023/03/21 00:55:32;;;;;;;8.87;6.67;;;12.20;99.90;;;;;;10365492;28;20261;-82
2023/03/21 01:00:36;;;;;;;9.93;7.97;;;11.90;99.90;;;;;;10393669;28;20267;-82
2023/03/21 01:11:08;;;;;;;11.57;7.77;;;11.40;99.90;;;;;;10369411;28;20571;-82
2023/03/21 01:16:11;;;;;;;8.87;6.67;;;11.30;99.90;;;;;;10352070;28;20200;-82
2023/03/21 01:21:15;;;;;;;10.97;7.67;;;11.30;99.90;;;;;;10352578;28;20404;-82
2023/03/21 01:26:17;;;;;;;14.70;9.20;;;11.20;99.90;;;;;;10369519;28;20285;-82
2023/03/21 01:31:20;;;;;;;13.07;7.70;;;10.90;99.90;;;;;;10408305;28;20620;-82
2023/03/21 01:36:25;;;;;;;10.67;7.03;;;10.90;99.90;;;;;;10387662;28;20665;-82
2023/03/21 01:41:36;;;;;;;12.67;8.37;;;10.90;99.90;;;;;;10353138;28;20609;-82
2023/03/21 01:47:00;;;;;;;12.43;7.13;;;10.90;99.90;;;;;;10379205;28;20236;-82
2023/03/21 01:52:36;;;;;;;9.20;5.10;;;10.90;99.90;;;;;;10409397;28;20712;-81
2023/03/21 01:57:52;;;;;;;8.67;6.03;;;10.90;99.90;;;;;;10383687;28;20627;-82
2023/03/21 02:03:49;;;;;;;9.87;7.23;;;11.10;99.90;;;;;;10360970;28;20779;-81
2023/03/21 02:09:12;;;;;;;9.63;5.57;;;11.30;99.90;;;;;;10406921;28;20208;-82
2023/03/21 02:14:18;;;;;;;11.57;7.70;;;11.40;99.90;;;;;;10369107;28;20716;-82
2023/03/21 02:20:12;;;;;;;10.07;6.77;;;11.40;99.90;;;;;;10402944;28;20619;-82
2023/03/21 02:25:33;;;;;;;8.53;5.47;;;11.10;99.90;;;;;;10380014;28;20208;-82
2023/03/21 02:31:10;;;;;;;8.67;5.30;;;11.10;99.90;;;;;;10358957;28;20627;-82
2023/03/21 02:36:44;;;;;;;11.77;7.70;;;11.10;99.90;;;;;;10375081;28;20259;-82
2023/03/21 02:42:07;;;;;;;6.00;5.23;;;11.10;99.90;;;;;;10376218;28;20287;-82
2023/03/21 02:47:33;;;;;;;12.23;6.43;;;11.00;99.90;;;;;;10372087;28;20235;-82
2023/03/21 02:52:44;;;;;;;8.17;5.23;;;11.00;99.90;;;;;;10358753;28;20947;-82
2023/03/21 02:57:49;;;;;;;10.40;6.80;;;11.10;99.90;;;;;;10357737;28;20200;-82
2023/03/21 03:02:53;;;;;;;10.93;7.87;;;11.20;99.90;;;;;;10365775;28;20239;-82
2023/03/21 03:08:16;;;;;;;6.47;5.13;;;10.90;99.90;;;;;;10359189;28;20203;-82
2023/03/21 03:13:41;;;;;;;8.43;5.53;;;11.00;99.90;;;;;;10389357;28;20698;-82
2023/03/21 03:18:59;;;;;;;6.00;5.40;;;10.90;99.90;;;;;;10356016;28;20662;-83
2023/03/21 03:24:15;;;;;;;8.20;6.43;;;10.80;99.90;;;;;;10357557;28;20259;-82
2023/03/21 03:29:24;;;;;;;8.43;7.07;;;10.70;99.90;;;;;;10357040;28;20211;-82
2023/03/21 03:34:39;;;;;;;6.70;5.60;;;10.80;99.90;;;;;;10355476;28;20256;-82
2023/03/21 03:40:07;;;;;;;9.40;7.27;;;10.90;99.90;;;;;;10355885;28;20235;-82
2023/03/21 03:45:14;;;;;;;7.60;5.50;;;10.70;99.90;;;;;;10355879;28;20286;-81
2023/03/21 03:50:27;;;;;;;9.93;6.70;;;10.70;99.90;;;;;;10376545;28;20250;-81
2023/03/21 03:55:33;;;;;;;9.23;7.17;;;10.50;99.90;;;;;;10381766;28;20274;-82
2023/03/21 04:00:47;;;;;;;10.47;7.33;;;10.50;99.90;;;;;;10387138;28;20230;-82
2023/03/21 04:05:50;;;;;;;6.83;5.37;;;10.30;99.90;;;;;;10396809;28;20208;-82
2023/03/21 04:10:53;;;;;;;7.70;6.07;;;10.40;99.90;;;;;;10382850;28;20236;-82
2023/03/21 04:15:57;;;;;;;10.97;7.63;;;10.40;99.90;;;;;;10355285;28;20225;-82
2023/03/21 04:21:00;;;;;;;5.97;5.17;;;10.50;99.90;;;;;;10354846;28;20212;-82
2023/03/21 04:26:05;;;;;;;6.03;4.87;;;10.50;99.90;;;;;;10380190;28;20209;-82
2023/03/21 04:31:16;;;;;;;6.47;5.43;;;10.90;99.90;;;;;;10353766;28;20626;-82
2023/03/21 04:36:37;;;;;;;10.53;7.83;;;11.20;99.90;;;;;;10353193;28;20306;-82
2023/03/21 04:41:45;;;;;;;10.47;7.63;;;11.10;99.90;;;;;;10365917;28;20212;-82
2023/03/21 04:46:47;;;;;;;16.93;9.73;;;10.90;99.90;;;;;;10379384;28;20286;-82
2023/03/21 04:51:50;;;;;;;8.87;6.20;;;10.80;99.90;;;;;;10381408;28;20196;-82
2023/03/21 04:56:54;;;;;;;7.37;5.13;;;10.80;99.90;;;;;;10393083;28;20347;-83
2023/03/21 05:02:00;;;;;;;8.63;7.10;;;11.10;99.90;;;;;;10376036;28;20242;-83
2023/03/21 05:07:05;;;;;;;10.43;6.77;;;11.60;99.90;;;;;;10367310;28;20236;-82
2023/03/21 05:12:07;;;;;;;8.13;4.53;;;11.90;99.90;;;;;;10365920;28;20235;-82
2023/03/21 05:17:23;;;;;;;8.23;5.83;;;11.90;99.90;;;;;;10375803;28;20199;-82
2023/03/21 05:22:27;;;;;;;5.83;4.50;;;11.80;99.90;;;;;;10351840;28;20217;-83
2023/03/21 05:27:34;;;;;;;14.27;6.63;;;11.70;99.90;;;;;;10370409;28;20211;-82
2023/03/21 05:32:43;;;;;;;8.70;5.77;;;11.60;99.90;;;;;;10365162;28;20263;-82
2023/03/21 05:37:46;;;;;;;8.47;5.43;;;11.80;99.90;;;;;;10351227;28;20232;-83
2023/03/21 05:42:50;;;;;;;12.47;8.60;;;11.80;99.90;;;;;;10390339;28;20271;-83
2023/03/21 05:47:57;;;;;;;7.37;6.37;;;11.60;99.90;;;;;;10364336;28;20255;-83
2023/03/21 05:53:05;;;;;;;9.17;7.03;;;11.60;99.90;;;;;;10379153;28;20256;-83
2023/03/21 05:58:09;;;;;;;7.30;5.93;;;11.40;99.90;;;;;;10375964;28;20295;-82
2023/03/21 06:03:14;;;;;;;11.93;7.47;;;11.20;99.90;;;;;;10349671;28;20295;-82
2023/03/21 06:08:32;;;;;;;8.77;6.80;;;11.20;99.90;;;;;;10363094;28;20213;-82
2023/03/21 06:13:35;;;;;;;12.70;8.63;;;11.50;99.90;;;;;;10390583;28;20301;-82
2023/03/21 06:18:38;;;;;;;10.93;8.30;;;11.80;99.90;;;;;;10390710;28;20231;-82
2023/03/21 06:23:59;;;;;;;8.13;5.30;;;11.70;99.90;;;;;;10392834;28;20638;-82
2023/03/21 06:29:03;;;;;;;10.43;7.27;;;11.70;99.90;;;;;;10356171;28;20232;-82
2023/03/21 06:34:09;;;;;;;8.57;6.00;;;11.90;99.90;;;;;;10350099;28;20271;-82
2023/03/21 06:39:14;;;;;;;14.47;8.80;;;12.00;99.90;;;;;;10389093;28;20226;-83
2023/03/21 06:44:18;;;;;;;6.90;5.60;;;11.80;99.90;;;;;;10378551;28;20271;-81
2023/03/21 06:49:29;;;;;;;13.70;9.97;;;11.70;99.90;;;;;;10363631;28;20581;-82
2023/03/21 06:54:36;;;;;;;14.03;8.03;;;11.80;99.90;;;;;;10349412;28;20317;-82
2023/03/21 06:59:45;;;;;;;12.50;8.70;;;11.80;99.90;;;;;;10362556;28;20261;-82
2023/03/21 07:04:54;;;;;;;9.33;6.60;;;12.10;99.90;;;;;;10388115;28;20631;-83
2023/03/21 07:10:02;;;;;;;10.40;7.17;;;11.90;99.90;;;;;;10384696;28;20239;-82
2023/03/21 07:15:10;;;;;;;9.97;6.77;;;12.00;99.90;;;;;;10356384;28;20255;-82
2023/03/21 07:20:15;;;;;;;7.77;6.07;;;12.50;99.90;;;;;;10374359;28;20207;-85
2023/03/21 07:25:19;;;;;;;7.87;5.30;;;12.60;99.90;;;;;;10395933;28;20204;-84
2023/03/21 07:30:22;;;;;;;5.37;3.97;;;13.00;99.90;;;;;;10371994;28;20268;-83
2023/03/21 07:35:25;;;;;;;10.90;7.40;;;13.20;99.90;;;;;;10356453;28;20299;-83
2023/03/21 07:40:28;;;;;;;11.87;6.93;;;13.20;99.90;;;;;;10367504;28;20286;-80
2023/03/21 07:45:31;;;;;;;5.37;4.67;;;13.10;99.90;;;;;;10374093;28;20743;-80
2023/03/21 07:50:34;;;;;;;7.23;5.53;;;13.20;99.90;;;;;;10358517;28;20228;-81
2023/03/21 07:55:37;;;;;;;5.97;5.43;;;13.50;99.90;;;;;;10384813;28;20247;-80
2023/03/21 08:00:41;;;;;;;11.27;7.50;;;13.70;99.00;;;;;;10359176;28;20455;-81
2023/03/21 08:05:44;;;;;;;16.90;13.07;;;13.80;99.20;;;;;;10372831;28;20290;-80
2023/03/21 08:10:46;;;;;;;14.80;8.80;;;13.90;96.30;;;;;;10366394;28;20243;-81
2023/03/21 08:15:49;;;;;;;7.27;4.73;;;13.80;98.30;;;;;;10411230;28;20657;-81
2023/03/21 08:20:56;;;;;;;7.00;5.37;;;14.20;98.60;;;;;;10411603;28;20612;-81
2023/03/21 08:26:00;;;;;;;9.03;6.90;;;14.30;97.90;;;;;;10391344;28;20293;-80
2023/03/21 08:31:08;;;;;;;4.27;3.67;;;14.10;96.40;;;;;;10365341;28;20231;-80
2023/03/21 08:36:11;;;;;;;5.23;4.00;;;14.50;97.60;;;;;;10391132;28;20247;-81
2023/03/21 08:41:14;;;;;;;15.30;8.83;;;14.50;97.00;;;;;;10409793;28;20227;-80
2023/03/21 08:46:17;;;;;;;4.63;3.70;;;14.20;96.30;;;;;;10390863;28;20647;-80
2023/03/21 08:51:20;;;;;;;10.77;6.97;;;14.30;97.40;;;;;;10368797;28;20239;-80
2023/03/21 08:56:23;;;;;;;6.00;3.57;;;14.40;95.70;;;;;;10385402;28;20362;-80
2023/03/21 09:01:26;;;;;;;10.83;6.40;;;14.20;97.10;;;;;;10406813;28;20597;-81
2023/03/21 09:06:28;;;;;;;5.10;4.23;;;14.50;96.80;;;;;;10383833;28;20683;-80
2023/03/21 09:11:31;;;;;;;9.20;5.83;;;14.40;96.40;;;;;;10402716;28;20702;-80
2023/03/21 09:16:34;;;;;;;8.40;6.27;;;14.80;95.70;;;;;;10405984;28;20257;-80
2023/03/21 09:21:38;;;;;;;4.90;3.70;;;15.00;93.90;;;;;;10406355;28;20273;-81
2023/03/21 09:26:42;;;;;;;10.03;7.83;;;15.10;95.00;;;;;;10400363;28;20285;-81
2023/03/21 09:31:45;;;;;;;5.03;4.50;;;15.30;92.20;;;;;;10403947;28;20691;-80
2023/03/21 09:36:50;;;;;;;17.07;11.77;;;15.00;94.30;;;;;;10404836;28;20329;-80
2023/03/21 09:42:10;;;;;;;13.13;9.33;;;15.20;92.70;;;;;;10383203;28;20429;-81
2023/03/21 09:47:23;;;;;;;4.30;3.90;;;14.80;92.70;;;;;;10386756;28;20273;-81
2023/03/21 09:52:46;;;;;;;15.87;11.37;;;14.60;94.70;;;;;;10381862;28;20728;-80
2023/03/21 09:58:21;;;;;;;12.23;10.10;;;14.70;92.80;;;;;;10386240;28;20709;-81
2023/03/21 10:03:28;;;;;;;9.40;7.33;;;14.70;92.70;;;;;;10361649;28;20251;-82
2023/03/21 10:08:35;;;;;;;15.83;11.30;;;14.20;94.00;;;;;;10367747;28;20650;-82
2023/03/21 10:14:02;;;;;;;12.43;7.63;;;14.00;93.40;;;;;;10367091;28;20261;-83
2023/03/21 10:19:11;;;;;;;6.07;5.47;;;13.80;97.00;;;;;;10372700;28;20636;-82
2023/03/21 10:24:19;;;;;;;5.83;4.70;;;13.80;97.50;;;;;;10389192;28;20277;-81
2023/03/21 10:29:30;;;;;;;6.07;5.47;;;14.50;97.10;;;;;;10396576;28;20678;-82
2023/03/21 10:34:41;;;;;;;8.43;5.57;;;15.00;96.00;;;;;;10380516;28;20282;-84
2023/03/21 10:39:48;;;;;;;7.60;6.00;;;15.10;95.10;;;;;;10387247;28;20610;-83
2023/03/21 10:44:58;;;;;;;8.00;4.80;;;15.30;93.60;;;;;;10381286;28;20261;-83
2023/03/21 10:50:06;;;;;;;6.03;5.27;;;15.60;92.70;;;;;;10392038;28;20293;-82
2023/03/21 10:55:22;;;;;;;14.60;10.40;;;15.80;92.20;;;;;;10408996;28;20255;-83
2023/03/21 11:00:32;;;;;;;9.17;8.13;;;15.20;90.90;;;;;;10029102;28;10000517;-82
2023/03/21 11:05:39;;;;;;;7.10;5.53;;;14.80;90.70;;;;;;10373819;28;20290;-82
2023/03/21 11:11:05;;;;;;;19.07;14.10;;;14.40;93.00;;;;;;10369047;28;20302;-82
2023/03/21 11:16:21;;;;;;;6.50;5.20;;;14.00;91.50;;;;;;10372413;28;20269;-83
2023/03/21 11:21:26;;;;;;;18.13;13.80;;;14.10;93.70;;;;;;10390260;28;20893;-82
2023/03/21 11:26:36;;;;;;;5.67;4.97;;;14.00;89.90;;;;;;10369060;28;20238;-82
2023/03/21 11:31:40;;;;;;;7.33;6.53;;;14.20;96.00;;;;;;10365934;28;20240;-79
2023/03/21 11:36:49;;;;;;;20.43;13.37;;;14.60;94.10;;;;;;10367703;28;20256;-80
2023/03/21 11:41:51;;;;;;;7.13;6.37;;;14.50;90.90;;;;;;10385804;28;20285;-80
2023/03/21 11:46:54;;;;;;;20.97;14.33;;;14.30;93.20;;;;;;10407998;28;20335;-79
2023/03/21 11:52:06;;;;;;;5.53;5.00;;;14.20;91.70;;;;;;10391653;28;20301;-79
2023/03/21 11:57:34;;;;;;;19.67;12.83;;;14.40;93.10;;;;;;10408339;28;20281;-80
2023/03/21 12:03:01;;;;;;;22.87;16.47;;;14.60;91.30;;;;;;10356477;28;20775;-80
2023/03/21 12:08:32;;;;;;;21.80;14.77;;;14.20;89.00;;;;;;10369466;28;20685;-80
2023/03/21 12:14:04;;;;;;;7.53;6.13;;;14.20;90.60;;;;;;10377459;28;20689;-81
2023/03/21 12:19:45;;;;;;;9.07;6.57;;;14.10;93.70;;;;;;10349749;28;20708;-83
2023/03/21 12:24:55;;;;;;;10.37;8.30;;;13.90;94.10;;;;;;10397835;28;20238;-83
2023/03/21 12:30:27;;;;;;;5.33;4.83;;;14.00;93.80;;;;;;10389861;28;20242;-82
2023/03/21 12:35:51;;;;;;;15.97;10.90;;;14.40;95.60;;;;;;10365969;28;20337;-83
2023/03/21 12:40:56;;;;;;;5.40;4.90;;;15.10;92.90;;;;;;10370244;28;20235;-81
2023/03/21 12:46:09;;;;;;;25.23;15.70;;;15.60;91.90;;;;;;10352823;28;20286;-83
2023/03/21 12:51:16;;;;;;;20.30;14.73;;;15.30;86.30;;;;;;10427709;28;20238;-83
2023/03/21 12:56:24;;;;;;;25.83;16.77;;;15.20;88.50;;;;;;10427970;28;20877;-85
2023/03/21 13:01:28;;;;;;;7.63;5.77;;;14.70;86.90;;;;;;10375079;28;20282;-81
2023/03/21 13:06:31;;;;;;;20.57;14.40;;;14.90;92.30;;;;;;10376890;28;20232;-81
2023/03/21 13:11:34;;;;;;;8.13;6.50;;;14.50;88.10;;;;;;10347656;28;20746;-82
2023/03/21 13:17:00;;;;;;;9.30;7.10;;;14.60;92.10;;;;;;10402759;28;20302;-82
2023/03/21 13:22:26;;;;;;;11.90;10.43;;;15.10;92.30;;;;;;10405045;28;20229;-82
2023/03/21 13:27:35;;;;;;;12.87;10.57;;;15.40;90.80;;;;;;10383621;28;20221;-82
2023/03/21 13:32:40;;;;;;;6.07;5.43;;;15.40;84.60;;;;;;10385630;28;20254;-82
2023/03/21 13:38:00;;;;;;;9.17;7.47;;;15.50;90.40;;;;;;10359707;28;20669;-82
2023/03/21 13:43:03;;;;;;;7.33;5.47;;;15.50;84.30;;;;;;10363524;28;20700;-80
2023/03/21 13:48:28;;;;;;;4.23;3.80;;;15.50;90.30;;;;;;10363622;28;20314;-80
2023/03/21 13:53:40;;;;;;;3.80;3.43;;;15.30;88.20;;;;;;10363075;28;20708;-80
2023/03/21 13:58:42;;;;;;;4.33;3.80;;;15.60;91.50;;;;;;10363623;28;20640;-81
2023/03/21 14:03:46;;;;;;;7.43;5.40;;;15.90;90.20;;;;;;10364174;28;20231;-81
2023/03/21 14:08:48;;;;;;;11.93;8.50;;;15.90;85.50;;;;;;10386644;28;20246;-81
2023/03/21 14:13:53;;;;;;;14.67;9.23;;;15.70;80.50;;;;;;10403827;28;20239;-81
2023/03/21 14:19:03;;;;;;;12.43;9.63;;;14.80;77.60;;;;;;10361432;28;21077;-81
2023/03/21 14:24:12;;;;;;;10.27;7.57;;;14.90;84.70;;;;;;10412728;28;20301;-80
2023/03/21 14:29:24;;;;;;;12.33;8.63;;;15.10;91.40;;;;;;10402653;28;20254;-80
2023/03/21 14:34:32;;;;;;;19.70;13.13;;;15.00;89.30;;;;;;10401075;28;20241;-80
2023/03/21 14:39:35;;;;;;;15.80;11.03;;;15.10;86.30;;;;;;10373451;28;20224;-80
2023/03/21 14:44:39;;;;;;;6.43;5.10;;;14.90;87.50;;;;;;10377833;28;20273;-80
2023/03/21 14:49:57;;;;;;;5.07;4.57;;;14.90;91.50;;;;;;10406416;28;20235;-79
2023/03/21 14:55:04;;;;;;;12.80;9.30;;;14.80;92.00;;;;;;10412779;28;20269;-86
2023/03/21 15:00:22;;;;;;;25.97;16.27;;;14.80;90.30;;;;;;10366148;28;20686;-83
2023/03/21 15:05:36;;;;;;;20.80;14.30;;;14.50;87.60;;;;;;10373557;28;20227;-81
2023/03/21 15:10:40;;;;;;;22.40;16.00;;;14.20;90.10;;;;;;10373002;28;20243;-81
2023/03/21 15:15:43;;;;;;;15.20;9.90;;;14.10;90.40;;;;;;10355577;28;20252;-81
2023/03/21 15:20:48;;;;;;;5.53;4.23;;;14.00;93.40;;;;;;10373312;28;20240;-82
2023/03/21 15:25:52;;;;;;;6.10;4.43;;;14.40;95.80;;;;;;10373032;28;20228;-82
2023/03/21 15:30:55;;;;;;;19.30;14.60;;;14.60;95.10;;;;;;10387503;28;20239;-82
2023/03/21 15:35:59;;;;;;;27.87;18.93;;;14.30;91.70;;;;;;10413547;28;20325;-81
2023/03/21 15:41:19;;;;;;;26.33;17.27;;;13.90;92.50;;;;;;10396857;28;20665;-81
2023/03/21 15:46:47;;;;;;;12.57;8.07;;;13.30;93.20;;;;;;10393761;28;20324;-81
2023/03/21 15:51:58;;;;;;;19.93;12.43;;;13.50;96.60;;;;;;10384138;28;20441;-82
2023/03/21 15:57:08;;;;;;;29.00;17.93;;;13.40;95.70;;;;;;10401711;28;20252;-82
2023/03/21 16:02:20;;;;;;;17.37;12.07;;;13.30;95.40;;;;;;10389555;28;20282;-82
2023/03/21 16:07:24;;;;;;;9.80;7.50;;;13.60;97.20;;;;;;10390804;28;20231;-82
2023/03/21 16:12:26;;;;;;;18.50;13.00;;;13.60;97.10;;;;;;10392963;28;20651;-82
2023/03/21 16:17:38;;;;;;;17.37;12.40;;;13.30;95.70;;;;;;10410786;28;20705;-82
2023/03/21 16:22:41;;;;;;;26.20;18.37;;;13.30;96.20;;;;;;10407500;28;20230;-82
2023/03/21 16:27:44;;;;;;;9.87;8.50;;;13.20;96.00;;;;;;10392454;28;20254;-82
2023/03/21 16:32:48;;;;;;;15.53;10.87;;;13.30;97.80;;;;;;10393523;28;20224;-82
2023/03/21 16:37:51;;;;;;;7.87;5.40;;;13.00;96.40;;;;;;10402190;28;20892;-84
2023/03/21 16:42:54;;;;;;;6.10;5.27;;;13.30;99.90;;;;;;10352136;28;20707;-83
2023/03/21 16:47:57;;;;;;;12.97;9.40;;;13.50;98.80;;;;;;10393397;28;20946;-83
2023/03/21 16:53:01;;;;;;;18.57;11.83;;;13.50;96.90;;;;;;10410569;28;20231;-82
2023/03/21 16:58:05;;;;;;;23.97;16.37;;;13.50;98.10;;;;;;10408655;28;20665;-82
2023/03/21 17:03:20;;;;;;;35.20;21.83;;;13.10;95.70;;;;;;10366045;28;20739;-81
2023/03/21 17:08:25;;;;;;;15.17;10.10;;;12.40;95.80;;;;;;10358576;28;20300;-82
2023/03/21 17:13:27;;;;;;;27.90;19.33;;;11.70;99.90;;;;;;10391087;28;20758;-82
2023/03/21 17:18:30;;;;;;;23.93;16.90;;;12.20;99.90;;;;;;10408590;28;20266;-81
2023/03/21 17:23:32;;;;;;;23.60;17.17;;;11.90;99.60;;;;;;10382322;28;20687;-87
2023/03/21 17:28:39;;;;;;;40.13;25.80;;;12.00;99.90;;;;;;10367943;28;20243;-82
2023/03/21 17:33:43;;;;;;;42.17;28.07;;;11.80;99.90;;;;;;10351737;28;20290;-82
2023/03/21 17:38:46;;;;;;;45.40;28.73;;;11.60;99.90;;;;;;10389881;28;20251;-82
2023/03/21 17:43:50;;;;;;;50.40;31.23;;;11.30;99.90;;;;;;10373314;28;20278;-82
2023/03/21 17:48:53;;;;;;;60.23;36.50;;;11.20;99.90;;;;;;10378348;28;20268;-82
2023/03/21 17:53:56;;;;;;;66.97;40.57;;;11.10;99.90;;;;;;10380800;28;20227;-82
2023/03/21 17:59:02;;;;;;;89.63;58.73;;;11.00;99.90;;;;;;10407885;28;20709;-82
2023/03/21 18:04:04;;;;;;;45.57;29.43;;;10.90;99.90;;;;;;10380349;28;20239;-82
2023/03/21 18:09:10;;;;;;;51.67;29.50;;;10.80;99.90;;;;;;10395625;28;20330;-82
2023/03/21 18:14:13;;;;;;;71.97;46.77;;;10.70;99.90;;;;;;10403708;28;20227;-82
2023/03/21 18:19:20;;;;;;;48.10;27.43;;;10.60;99.90;;;;;;10385129;28;20255;-80
2023/03/21 18:24:23;;;;;;;48.40;29.33;;;10.70;99.90;;;;;;10394879;28;20647;-81
2023/03/21 18:29:27;;;;;;;43.90;25.23;;;11.10;99.90;;;;;;10382675;28;20310;-80
2023/03/21 18:34:50;;;;;;;50.60;28.13;;;11.20;99.90;;;;;;10393962;28;20223;-94
2023/03/21 18:39:53;;;;;;;63.80;37.20;;;11.20;99.90;;;;;;10389962;28;20258;-81
2023/03/21 18:44:56;;;;;;;45.27;28.20;;;11.20;99.90;;;;;;10383088;28;20290;-81
2023/03/21 18:49:59;;;;;;;62.40;34.47;;;11.10;99.90;;;;;;10365790;28;20682;-81
2023/03/21 18:55:18;;;;;;;58.40;30.70;;;11.00;99.90;;;;;;10350370;28;20237;-82
2023/03/21 19:00:22;;;;;;;46.50;28.30;;;10.90;99.90;;;;;;10389901;28;20250;-81
2023/03/21 19:05:26;;;;;;;51.53;30.70;;;10.80;99.90;;;;;;10362081;28;20700;-81
2023/03/21 19:10:28;;;;;;;45.40;28.97;;;10.80;99.90;;;;;;10398307;28;20649;-81
2023/03/21 19:15:31;;;;;;;44.77;27.33;;;10.70;99.90;;;;;;10375738;28;20686;-82
2023/03/21 19:20:33;;;;;;;35.40;22.47;;;10.60;99.90;;;;;;10356111;28;20205;-86
2023/03/21 19:25:36;;;;;;;32.73;21.97;;;10.70;99.90;;;;;;10404588;28;20308;-86
2023/03/21 19:30:39;;;;;;;37.47;23.83;;;10.80;99.90;;;;;;10383309;28;20644;-84
2023/03/21 19:35:51;;;;;;;46.87;28.37;;;10.70;99.90;;;;;;10393867;28;20649;-84
2023/03/21 19:41:14;;;;;;;47.37;29.27;;;10.70;99.90;;;;;;10399353;28;20616;-83
2023/03/21 19:46:18;;;;;;;37.73;26.40;;;10.60;99.90;;;;;;10386779;28;20254;-82
2023/03/21 19:51:22;;;;;;;43.43;27.30;;;10.50;99.90;;;;;;10381638;28;20227;-81
2023/03/21 19:56:31;;;;;;;33.60;22.17;;;10.50;99.90;;;;;;10401239;28;20351;-82
2023/03/21 20:01:36;;;;;;;42.13;25.70;;;10.50;99.90;;;;;;10390536;28;20192;-81
2023/03/21 20:06:39;;;;;;;28.07;17.87;;;10.60;99.90;;;;;;10401661;28;20235;-83
2023/03/21 20:11:42;;;;;;;38.20;25.53;;;10.70;99.90;;;;;;10388531;28;20594;-83
2023/03/21 20:16:44;;;;;;;44.30;27.27;;;10.70;99.90;;;;;;10393004;28;20256;-84
2023/03/21 20:21:47;;;;;;;33.33;21.83;;;10.60;99.90;;;;;;10390243;28;20265;-84
2023/03/21 20:27:00;;;;;;;48.67;30.10;;;10.60;99.90;;;;;;10389732;28;20246;-85
2023/03/21 20:32:03;;;;;;;46.97;30.17;;;10.50;99.90;;;;;;10401162;28;20227;-85
2023/03/21 20:37:06;;;;;;;49.03;29.57;;;10.40;99.90;;;;;;10410073;28;20254;-85
2023/03/21 20:42:10;;;;;;;47.83;29.93;;;10.30;99.90;;;;;;10380765;28;20699;-84
2023/03/21 20:47:13;;;;;;;54.83;34.67;;;10.30;99.90;;;;;;10381060;28;20312;-85
2023/03/21 20:52:16;;;;;;;62.00;36.67;;;10.20;99.90;;;;;;10360545;28;20296;-83
2023/03/21 20:57:39;;;;;;;48.67;28.80;;;10.20;99.90;;;;;;10395423;28;20254;-83
2023/03/21 21:02:45;;;;;;;45.80;28.63;;;10.30;99.90;;;;;;10405737;28;20629;-83
2023/03/21 21:07:49;;;;;;;61.93;37.07;;;10.30;99.90;;;;;;10382727;28;20215;-85
2023/03/21 21:12:52;;;;;;;58.10;34.20;;;10.30;99.90;;;;;;10403714;28;20619;-85
2023/03/21 21:17:58;;;;;;;57.87;34.73;;;10.10;99.90;;;;;;10399378;28;20251;-83
2023/03/21 21:23:08;;;;;;;62.77;36.07;;;10.10;99.90;;;;;;10405245;28;20238;-82
2023/03/21 21:28:11;;;;;;;58.73;35.00;;;10.10;99.90;;;;;;10387387;28;20297;-83
2023/03/21 21:33:13;;;;;;;65.37;38.97;;;10.00;99.90;;;;;;10374108;28;20377;-82
2023/03/21 21:38:18;;;;;;;61.03;37.23;;;10.00;99.90;;;;;;10387224;28;20305;-83
2023/03/21 21:43:21;;;;;;;61.40;35.73;;;10.00;99.90;;;;;;10403906;28;20752;-83
2023/03/21 21:48:24;;;;;;;56.00;35.23;;;9.80;99.90;;;;;;10357427;28;20793;-83
2023/03/21 21:53:27;;;;;;;59.60;35.40;;;9.80;99.90;;;;;;10401863;28;20266;-83
2023/03/21 21:58:32;;;;;;;48.13;30.83;;;9.80;99.90;;;;;;10388097;28;20309;-83
2023/03/21 22:03:35;;;;;;;56.97;34.50;;;9.70;99.90;;;;;;10403672;28;20229;-83
2023/03/21 22:08:45;;;;;;;57.27;36.03;;;9.90;99.90;;;;;;10405181;28;20248;-82
2023/03/21 22:13:48;;;;;;;49.37;30.13;;;9.90;99.90;;;;;;10373282;28;20278;-83
2023/03/21 22:18:51;;;;;;;53.10;32.30;;;9.80;99.90;;;;;;10400459;28;20309;-84
2023/03/21 22:23:53;;;;;;;63.57;39.20;;;9.70;99.90;;;;;;10380148;28;20302;-83
2023/03/21 22:28:57;;;;;;;58.37;35.60;;;9.80;99.90;;;;;;10366906;28;20317;-83
2023/03/21 22:33:59;;;;;;;60.07;37.17;;;9.70;99.90;;;;;;10386302;28;20644;-83
2023/03/21 22:39:02;;;;;;;60.47;35.63;;;9.80;99.90;;;;;;10391138;28;20331;-83
2023/03/21 22:44:05;;;;;;;41.20;27.03;;;9.70;99.90;;;;;;10412487;28;20262;-82
2023/03/21 22:49:07;;;;;;;58.43;36.07;;;9.70;99.90;;;;;;10373625;28;20259;-82
2023/03/21 22:54:10;;;;;;;58.67;33.63;;;9.80;99.90;;;;;;10381704;28;20290;-83
2023/03/21 22:59:12;;;;;;;56.33;30.43;;;9.80;99.90;;;;;;10357476;28;20321;-82
2023/03/21 23:04:15;;;;;;;56.77;35.10;;;9.80;99.90;;;;;;10401284;28;20221;-81
2023/03/21 23:09:19;;;;;;;53.53;32.90;;;9.80;99.90;;;;;;10389239;28;20251;-81
2023/03/21 23:14:22;;;;;;;64.87;39.33;;;9.70;99.90;;;;;;10419684;28;20655;-81
2023/03/21 23:19:32;;;;;;;51.93;32.23;;;9.70;99.90;;;;;;10396616;28;20278;-81
2023/03/21 23:24:43;;;;;;;56.80;36.67;;;9.70;99.90;;;;;;10422368;28;20227;-81
2023/03/21 23:29:46;;;;;;;53.20;32.20;;;9.70;99.90;;;;;;10396076;28;20289;-81
2023/03/21 23:34:48;;;;;;;53.23;33.43;;;9.60;99.90;;;;;;10389002;28;20231;-81
2023/03/21 23:39:54;;;;;;;52.00;32.40;;;9.80;99.90;;;;;;10404063;28;20251;-83
2023/03/21 23:44:56;;;;;;;51.80;32.20;;;9.80;99.90;;;;;;10389394;28;20618;-83
2023/03/21 23:49:59;;;;;;;57.50;32.40;;;9.70;99.90;;;;;;10405727;28;20238;-83
2023/03/21 23:55:03;;;;;;;55.80;36.77;;;9.60;99.90;;;;;;10408527;28;20235;-83
